createdAt,value
2019-04-29T00:00:58.465Z,44.20
2019-04-29T00:04:02.784Z,49.13
2019-04-29T00:07:07.257Z,50.23
2019-04-29T00:10:13.349Z,46.40
2019-04-29T00:13:17.933Z,44.57
2019-04-29T00:16:56.250Z,43.77
2019-04-29T00:20:18.596Z,47.37
2019-04-29T00:23:22.920Z,46.20
2019-04-29T00:26:27.325Z,43.20
2019-04-29T00:29:31.644Z,47.27
2019-04-29T00:32:35.941Z,46.13
2019-04-29T00:35:40.315Z,44.43
2019-04-29T00:39:11.768Z,53.90
2019-04-29T00:42:23.784Z,47.80
2019-04-29T00:45:28.110Z,44.93
2019-04-29T00:48:32.414Z,43.70
2019-04-29T00:51:36.761Z,50.27
2019-04-29T00:54:46.158Z,50.70
2019-04-29T00:57:50.476Z,58.60
2019-04-29T01:00:54.789Z,50.50
2019-04-29T01:03:59.112Z,53.80
2019-04-29T01:07:03.702Z,46.17
2019-04-29T01:10:08.312Z,48.07
2019-04-29T01:13:12.604Z,54.33
2019-04-29T01:16:16.920Z,51.17
2019-04-29T01:19:21.240Z,48.10
2019-04-29T01:22:25.724Z,51.40
2019-04-29T01:25:30.023Z,49.63
2019-04-29T01:28:49.313Z,48.10
2019-04-29T01:31:52.447Z,51.87
2019-04-29T01:34:56.822Z,42.27
2019-04-29T01:38:01.136Z,47.67
2019-04-29T01:41:12.125Z,42.53
2019-04-29T01:44:17.059Z,47.03
2019-04-29T01:47:21.349Z,38.83
2019-04-29T01:50:25.639Z,42.33
2019-04-29T01:53:29.971Z,36.30
2019-04-29T01:56:34.324Z,38.57
2019-04-29T01:59:38.639Z,33.27
2019-04-29T02:02:42.945Z,35.20
2019-04-29T02:05:47.229Z,38.20
2019-04-29T02:08:53.322Z,36.93
2019-04-29T02:11:57.639Z,35.53
2019-04-29T02:15:01.938Z,36.23
2019-04-29T02:18:06.222Z,40.67
2019-04-29T02:21:10.543Z,32.63
2019-04-29T02:24:17.375Z,34.03
2019-04-29T02:27:21.643Z,29.73
2019-04-29T02:30:46.928Z,36.13
2019-04-29T02:33:51.182Z,34.83
2019-04-29T02:36:55.878Z,31.97
2019-04-29T02:40:06.447Z,30.53
2019-04-29T02:43:15.891Z,24.97
2019-04-29T02:46:20.221Z,34.17
2019-04-29T02:49:24.486Z,30.47
2019-04-29T02:52:28.823Z,30.73
2019-04-29T02:55:43.500Z,28.47
2019-04-29T02:58:55.071Z,30.60
2019-04-29T03:02:07.971Z,31.63
2019-04-29T03:05:21.662Z,26.57
2019-04-29T03:08:25.948Z,28.30
2019-04-29T03:11:30.216Z,29.33
2019-04-29T03:14:34.988Z,26.17
2019-04-29T03:17:39.426Z,27.07
2019-04-29T03:21:11.446Z,26.63
2019-04-29T03:24:15.828Z,30.07
2019-04-29T03:27:20.134Z,24.17
2019-04-29T03:30:24.407Z,24.87
2019-04-29T03:33:28.730Z,28.47
2019-04-29T03:36:33.011Z,26.80
2019-04-29T03:39:37.291Z,25.67
2019-04-29T03:42:41.573Z,28.60
2019-04-29T03:45:45.874Z,25.30
2019-04-29T03:48:50.140Z,24.30
2019-04-29T03:51:54.431Z,25.73
2019-04-29T03:54:58.706Z,24.80
2019-04-29T03:58:02.986Z,22.13
2019-04-29T04:01:21.667Z,25.30
2019-04-29T04:04:43.627Z,23.70
2019-04-29T04:07:54.549Z,25.00
2019-04-29T04:10:58.816Z,24.23
2019-04-29T04:14:03.110Z,23.20
2019-04-29T04:17:41.539Z,21.33
2019-04-29T04:20:45.884Z,21.87
2019-04-29T04:23:50.184Z,23.93
2019-04-29T04:26:54.565Z,20.67
2019-04-29T04:29:58.834Z,22.50
2019-04-29T04:33:03.121Z,24.63
2019-04-29T04:36:07.409Z,22.10
2019-04-29T04:39:11.679Z,25.50
2019-04-29T04:42:15.940Z,25.20
2019-04-29T04:45:20.226Z,25.43
2019-04-29T04:48:24.510Z,27.20
2019-04-29T04:51:28.773Z,28.00
2019-04-29T04:54:33.028Z,28.33
2019-04-29T04:57:37.307Z,29.60
2019-04-29T05:00:41.803Z,25.97
2019-04-29T05:03:46.113Z,26.87
2019-04-29T05:06:50.369Z,26.93
2019-04-29T05:09:54.639Z,25.37
2019-04-29T05:12:58.926Z,27.20
2019-04-29T05:16:03.211Z,29.87
2019-04-29T05:19:07.503Z,27.07
2019-04-29T05:22:11.791Z,26.47
2019-04-29T05:25:16.067Z,25.33
2019-04-29T05:28:20.351Z,26.63
2019-04-29T05:31:24.624Z,27.50
2019-04-29T05:34:30.525Z,28.87
2019-04-29T05:37:45.541Z,28.73
2019-04-29T05:40:51.300Z,28.10
2019-04-29T05:44:19.033Z,29.07
2019-04-29T05:47:41.485Z,28.67
2019-04-29T05:50:52.206Z,27.93
2019-04-29T05:53:58.771Z,32.53
2019-04-29T05:57:03.048Z,30.97
2019-04-29T06:00:07.910Z,32.63
2019-04-29T06:03:12.382Z,26.23
2019-04-29T06:06:16.693Z,27.57
2019-04-29T06:09:20.990Z,28.40
2019-04-29T06:12:25.288Z,24.97
2019-04-29T06:15:29.570Z,25.43
2019-04-29T06:18:33.863Z,26.03
2019-04-29T06:21:38.167Z,25.90
2019-04-29T06:24:42.451Z,27.33
2019-04-29T06:27:46.746Z,24.57
2019-04-29T06:30:51.948Z,28.07
2019-04-29T06:33:56.276Z,26.57
2019-04-29T06:37:00.564Z,26.73
2019-04-29T06:40:05.148Z,27.10
2019-04-29T06:43:09.448Z,29.10
2019-04-29T06:46:13.735Z,26.10
2019-04-29T06:49:18.025Z,30.87
2019-04-29T06:52:22.343Z,26.60
2019-04-29T06:55:26.642Z,30.10
2019-04-29T06:58:32.505Z,28.23
2019-04-29T07:01:37.489Z,28.23
2019-04-29T07:04:42.811Z,26.43
2019-04-29T07:07:47.178Z,27.70
2019-04-29T07:10:51.472Z,28.30
2019-04-29T07:13:57.511Z,31.27
2019-04-29T07:17:05.566Z,28.37
2019-04-29T07:20:08.032Z,31.30
2019-04-29T07:23:12.310Z,31.93
2019-04-29T07:26:16.632Z,30.87
2019-04-29T07:29:21.373Z,35.13
2019-04-29T07:32:26.911Z,34.33
2019-04-29T07:35:31.202Z,34.03
2019-04-29T07:38:41.545Z,34.37
2019-04-29T07:41:41.537Z,32.50
2019-04-29T07:45:04.782Z,34.43
2019-04-29T07:48:09.095Z,33.57
2019-04-29T07:51:13.412Z,31.77
2019-04-29T07:54:17.800Z,31.00
2019-04-29T07:57:22.137Z,31.67
2019-04-29T08:00:34.022Z,30.87
2019-04-29T08:03:38.321Z,28.73
2019-04-29T08:06:44.881Z,30.13
2019-04-29T08:09:49.485Z,29.90
2019-04-29T08:12:55.359Z,31.37
2019-04-29T08:15:59.640Z,30.07
2019-04-29T08:19:05.038Z,29.67
2019-04-29T08:25:35.001Z,31.20
2019-04-29T08:28:42.540Z,32.93
2019-04-29T08:31:51.883Z,35.50
2019-04-29T08:35:03.101Z,34.63
2019-04-29T08:38:05.666Z,38.53
2019-04-29T08:41:10.442Z,38.77
2019-04-29T08:44:32.414Z,36.17
2019-04-29T08:47:39.393Z,40.33
2019-04-29T08:50:46.686Z,40.27
2019-04-29T08:53:52.879Z,43.13
2019-04-29T08:57:03.149Z,41.57
2019-04-29T09:00:04.112Z,45.23
2019-04-29T09:03:08.569Z,48.10
2019-04-29T09:06:16.094Z,52.77
2019-04-29T09:09:29.192Z,49.57
2019-04-29T09:12:29.428Z,51.67
2019-04-29T09:15:33.650Z,50.43
2019-04-29T09:18:39.910Z,51.90
2019-04-29T09:21:46.207Z,47.93
2019-04-29T09:25:26.311Z,53.40
2019-04-29T09:28:33.240Z,46.93
2019-04-29T09:31:37.972Z,48.83
2019-04-29T09:34:42.459Z,49.00
2019-04-29T09:37:47.150Z,46.97
2019-04-29T09:41:10.849Z,46.17
2019-04-29T09:44:49.151Z,48.03
2019-04-29T09:47:53.532Z,51.50
2019-04-29T09:50:58.018Z,46.50
2019-04-29T09:54:05.331Z,43.90
2019-04-29T09:57:09.606Z,46.13
2019-04-29T10:00:32.274Z,41.03
2019-04-29T10:04:05.135Z,44.67
2019-04-29T10:10:43.133Z,45.20
2019-04-29T10:13:47.458Z,40.03
2019-04-29T10:17:11.179Z,40.20
2019-04-29T10:20:18.887Z,38.30
2019-04-29T10:23:23.467Z,35.50
2019-04-29T10:26:27.933Z,31.10
2019-04-29T10:29:33.053Z,21.87
2019-04-29T10:32:42.405Z,17.90
2019-04-29T10:35:45.097Z,19.60
2019-04-29T10:38:52.365Z,22.23
2019-04-29T10:42:03.524Z,20.27
2019-04-29T10:49:03.610Z,18.00
2019-04-29T10:52:07.284Z,19.87
2019-04-29T10:55:11.760Z,17.90
2019-04-29T10:58:16.542Z,33.17
2019-04-29T11:02:14.408Z,16.77
2019-04-29T11:05:36.598Z,17.97
2019-04-29T11:08:50.498Z,18.43
2019-04-29T11:11:54.733Z,16.63
2019-04-29T11:15:01.601Z,17.17
2019-04-29T11:18:06.566Z,17.60
2019-04-29T11:21:12.765Z,17.17
2019-04-29T11:24:25.975Z,17.00
2019-04-29T11:27:35.715Z,18.37
2019-04-29T11:30:40.707Z,19.17
2019-04-29T11:33:58.355Z,18.77
2019-04-29T11:37:02.805Z,17.50
2019-04-29T11:40:08.859Z,16.57
2019-04-29T11:43:15.451Z,18.07
2019-04-29T11:46:23.776Z,17.20
2019-04-29T11:49:36.180Z,17.33
2019-04-29T11:52:40.519Z,18.17
2019-04-29T11:55:46.429Z,18.37
2019-04-29T11:59:16.150Z,18.77
2019-04-29T12:02:46.246Z,16.90
2019-04-29T12:05:55.367Z,14.47
2019-04-29T12:08:59.780Z,15.60
2019-04-29T12:12:07.791Z,13.20
2019-04-29T12:15:29.450Z,15.10
2019-04-29T12:18:40.534Z,13.03
2019-04-29T12:21:45.627Z,12.60
2019-04-29T12:24:49.980Z,10.70
2019-04-29T12:28:01.506Z,15.43
2019-04-29T12:31:05.737Z,11.17
2019-04-29T12:34:37.876Z,13.53
2019-04-29T12:38:05.959Z,16.23
2019-04-29T12:41:48.234Z,12.60
2019-04-29T12:44:56.815Z,15.13
2019-04-29T12:48:01.085Z,15.60
2019-04-29T12:51:05.402Z,10.13
2019-04-29T12:54:09.706Z,12.13
2019-04-29T12:57:14.123Z,15.57
2019-04-29T13:00:23.635Z,12.87
2019-04-29T13:03:50.530Z,11.70
2019-04-29T13:07:06.932Z,13.23
2019-04-29T13:10:25.855Z,15.57
2019-04-29T13:13:30.201Z,12.23
2019-04-29T13:16:59.435Z,13.73
2019-04-29T13:20:07.225Z,12.40
2019-04-29T13:23:19.311Z,12.90
2019-04-29T13:26:27.829Z,13.40
2019-04-29T13:29:27.207Z,11.77
2019-04-29T13:32:31.528Z,10.23
2019-04-29T13:35:36.958Z,10.63
2019-04-29T13:38:41.370Z,11.43
2019-04-29T13:41:56.922Z,13.13
2019-04-29T13:45:06.114Z,12.23
2019-04-29T13:48:09.043Z,13.93
2019-04-29T13:51:34.656Z,9.07
2019-04-29T13:54:23.150Z,9.80
2019-04-29T13:57:27.492Z,7.57
2019-04-29T14:01:01.731Z,7.00
2019-04-29T14:04:24.205Z,9.73
2019-04-29T14:07:23.531Z,8.13
2019-04-29T14:10:27.872Z,6.30
2019-04-29T14:13:32.176Z,5.77
2019-04-29T14:16:36.471Z,6.13
2019-04-29T14:19:42.490Z,5.20
2019-04-29T14:22:46.955Z,5.03
2019-04-29T14:25:52.659Z,5.47
2019-04-29T14:28:56.949Z,5.87
2019-04-29T14:32:01.548Z,10.50
2019-04-29T14:35:15.492Z,4.67
2019-04-29T14:38:23.945Z,4.63
2019-04-29T14:41:28.396Z,5.47
2019-04-29T14:44:46.261Z,8.33
2019-04-29T14:48:08.026Z,5.33
2019-04-29T14:51:12.426Z,3.40
2019-04-29T14:54:16.792Z,5.10
2019-04-29T14:57:22.162Z,3.23
2019-04-29T15:00:46.035Z,4.63
2019-04-29T15:03:53.830Z,4.93
2019-04-29T15:07:07.423Z,3.77
2019-04-29T15:10:13.819Z,3.83
2019-04-29T15:13:21.089Z,2.97
2019-04-29T15:16:36.050Z,5.33
2019-04-29T15:20:05.122Z,4.67
2019-04-29T15:23:09.408Z,2.87
2019-04-29T15:26:13.730Z,3.63
2019-04-29T15:29:18.076Z,3.27
2019-04-29T15:32:23.739Z,2.53
2019-04-29T15:35:28.114Z,4.07
2019-04-29T15:38:32.570Z,3.90
2019-04-29T15:41:37.197Z,3.60
2019-04-29T15:44:41.710Z,3.80
2019-04-29T15:47:47.121Z,4.23
2019-04-29T15:50:51.482Z,7.83
2019-04-29T15:53:55.834Z,3.83
2019-04-29T15:57:03.759Z,3.60
2019-04-29T16:00:20.482Z,5.47
2019-04-29T16:03:17.857Z,3.30
2019-04-29T16:06:45.326Z,5.10
2019-04-29T16:10:14.511Z,4.50
2019-04-29T16:13:22.469Z,5.03
2019-04-29T16:16:24.015Z,6.07
2019-04-29T16:19:28.318Z,5.63
2019-04-29T16:22:38.560Z,3.63
2019-04-29T16:25:40.793Z,5.03
2019-04-29T16:28:44.915Z,5.67
2019-04-29T16:31:49.252Z,6.03
2019-04-29T16:34:53.529Z,3.93
2019-04-29T16:37:57.799Z,3.93
2019-04-29T16:41:19.125Z,3.70
2019-04-29T16:47:24.779Z,3.77
2019-04-29T16:50:29.223Z,5.83
2019-04-29T16:53:33.597Z,4.03
2019-04-29T16:56:37.885Z,2.80
2019-04-29T16:59:42.195Z,3.13
2019-04-29T17:02:46.495Z,3.20
2019-04-29T17:05:50.784Z,4.03
2019-04-29T17:09:22.797Z,2.60
2019-04-29T17:12:29.287Z,3.13
2019-04-29T17:15:30.114Z,5.90
2019-04-29T17:18:34.363Z,2.60
2019-04-29T17:21:38.644Z,4.07
2019-04-29T17:24:42.938Z,4.27
2019-04-29T17:28:12.098Z,2.50
2019-04-29T17:31:40.680Z,2.57
2019-04-29T17:34:58.965Z,2.93
2019-04-29T17:35:15.895Z,6.00
2019-04-29T17:37:51.422Z,3.50
2019-04-29T17:40:55.718Z,2.70
2019-04-29T17:44:14.666Z,3.23
2019-04-29T17:47:46.704Z,3.67
2019-04-29T17:50:52.465Z,4.83
2019-04-29T17:54:00.061Z,6.57
2019-04-29T17:57:31.223Z,3.90
2019-04-29T18:00:58.516Z,2.80
2019-04-29T18:04:11.759Z,3.10
2019-04-29T18:07:21.586Z,2.40
2019-04-29T18:10:30.877Z,2.23
2019-04-29T18:13:35.457Z,3.13
2019-04-29T18:16:43.596Z,2.37
2019-04-29T18:20:08.537Z,2.20
2019-04-29T18:23:28.400Z,4.10
2019-04-29T18:26:37.116Z,3.63
2019-04-29T18:29:42.998Z,2.00
2019-04-29T18:32:47.798Z,3.17
2019-04-29T18:36:02.050Z,3.33
2019-04-29T18:38:58.194Z,2.77
2019-04-29T18:42:03.169Z,3.80
2019-04-29T18:45:08.826Z,3.50
2019-04-29T18:48:16.977Z,2.97
2019-04-29T18:51:20.794Z,3.97
2019-04-29T18:54:27.044Z,2.13
2019-04-29T18:57:31.509Z,3.50
2019-04-29T19:00:35.911Z,3.07
2019-04-29T19:03:52.845Z,3.57
2019-04-29T19:07:02.144Z,4.67
2019-04-29T19:10:09.009Z,4.93
2019-04-29T19:13:12.731Z,5.23
2019-04-29T19:16:21.489Z,5.00
2019-04-29T19:19:22.049Z,7.43
2019-04-29T19:22:26.420Z,3.80
2019-04-29T19:25:31.063Z,3.90
2019-04-29T19:28:38.110Z,3.67
2019-04-29T19:31:46.712Z,2.77
2019-04-29T19:34:50.149Z,3.40
2019-04-29T19:37:54.947Z,6.53
2019-04-29T19:40:59.462Z,3.07
2019-04-29T19:44:05.819Z,3.17
2019-04-29T19:47:10.973Z,2.77
2019-04-29T19:50:19.431Z,4.07
2019-04-29T19:53:22.568Z,3.37
2019-04-29T19:56:27.319Z,4.10
2019-04-29T19:59:36.167Z,4.67
2019-04-29T20:02:45.251Z,6.93
2019-04-29T20:06:07.962Z,4.13
2019-04-29T20:09:08.477Z,3.37
2019-04-29T20:12:12.570Z,7.50
2019-04-29T20:15:16.447Z,6.47
2019-04-29T20:18:40.178Z,3.63
2019-04-29T20:21:41.578Z,5.60
2019-04-29T20:24:49.302Z,4.53
2019-04-29T20:28:04.796Z,3.63
2019-04-29T20:31:15.069Z,4.87
2019-04-29T20:34:06.034Z,3.83
2019-04-29T20:37:10.815Z,4.50
2019-04-29T20:40:16.478Z,3.90
2019-04-29T20:43:26.125Z,6.10
2019-04-29T20:46:39.874Z,6.63
2019-04-29T20:49:36.125Z,3.63
2019-04-29T20:52:58.956Z,4.67
2019-04-29T20:56:09.564Z,6.07
2019-04-29T20:59:11.369Z,7.83
2019-04-29T21:02:13.146Z,4.57
2019-04-29T21:05:23.050Z,4.43
2019-04-29T21:08:25.748Z,6.00
2019-04-29T21:11:51.733Z,7.80
2019-04-29T21:14:59.441Z,7.07
2019-04-29T21:18:05.361Z,5.93
2019-04-29T21:21:09.732Z,5.57
2019-04-29T21:24:18.448Z,6.43
2019-04-29T21:27:22.606Z,6.20
2019-04-29T21:30:34.899Z,4.80
2019-04-29T21:33:32.005Z,5.20
2019-04-29T21:36:55.339Z,5.57
2019-04-29T21:40:18.983Z,6.07
2019-04-29T21:43:26.171Z,7.17
2019-04-29T21:46:30.490Z,7.77
2019-04-29T21:49:44.867Z,6.00
2019-04-29T21:52:40.792Z,5.73
2019-04-29T21:55:45.740Z,6.37
2019-04-29T21:58:50.140Z,7.47
2019-04-29T22:01:56.199Z,6.57
2019-04-29T22:05:00.808Z,5.40
2019-04-29T22:08:06.391Z,7.80
2019-04-29T22:11:10.750Z,7.83
2019-04-29T22:14:15.581Z,5.60
2019-04-29T22:17:19.897Z,6.50
2019-04-29T22:20:25.877Z,6.03
2019-04-29T22:23:30.216Z,6.27
2019-04-29T22:26:35.006Z,7.33
2019-04-29T22:29:39.471Z,7.10
2019-04-29T22:32:46.859Z,9.57
2019-04-29T22:35:49.749Z,7.93
2019-04-29T22:38:55.771Z,8.90
2019-04-29T22:42:06.787Z,9.00
2019-04-29T22:45:11.282Z,8.63
2019-04-29T22:48:19.593Z,7.73
2019-04-29T22:51:21.545Z,9.67
2019-04-29T22:54:25.880Z,10.43
2019-04-29T22:57:31.609Z,9.37
2019-04-29T23:00:36.311Z,8.77
2019-04-29T23:03:40.581Z,7.63
2019-04-29T23:06:48.004Z,8.33
2019-04-29T23:09:50.839Z,10.97
2019-04-29T23:12:57.464Z,7.50
2019-04-29T23:16:02.234Z,9.43
2019-04-29T23:19:09.787Z,9.20
2019-04-29T23:22:34.245Z,11.47
2019-04-29T23:25:49.776Z,7.00
2019-04-29T23:28:55.454Z,8.00
2019-04-29T23:32:04.778Z,8.77
2019-04-29T23:35:09.707Z,9.67
2019-04-29T23:38:13.087Z,8.67
2019-04-29T23:41:17.373Z,8.50
2019-04-29T23:44:21.632Z,8.57
2019-04-29T23:47:25.916Z,6.73
2019-04-29T23:50:30.186Z,7.57
2019-04-29T23:53:35.137Z,12.10
2019-04-29T23:56:58.434Z,6.67
